Time;durP1;ratioP1;P1;durP2;ratioP2;P2;SDS_P1;SDS_P2;PMS_P1;PMS_P2;Temp;Humidity;BMP_temperature;BMP_pressure;BME280_temperature;BME280_humidity;BME280_pressure;Samples;Min_cycle;Max_cycle;Signal;HPM_P1;HPM_P2
2022/12/20 00:00:29;;;;;;;11.35;7.63;;;;;;;-1.13;100.00;61881.25;5005671;28;20249;-79
2022/12/20 00:02:58;;;;;;;12.43;8.32;;;;;;;-1.12;100.00;61886.78;5007531;28;20199;-79
2022/12/20 00:05:25;;;;;;;11.45;7.13;;;;;;;-1.19;100.00;61880.63;5005187;28;20210;-77
2022/12/20 00:07:52;;;;;;;16.35;8.32;;;;;;;-1.22;100.00;61872.56;5006165;28;20226;-79
2022/12/20 00:10:19;;;;;;;13.15;7.90;;;;;;;-1.23;100.00;61873.53;5004651;28;20203;-78
2022/12/20 00:12:46;;;;;;;13.48;7.50;;;;;;;-1.28;100.00;61873.91;5003089;28;20429;-79
2022/12/20 00:15:13;;;;;;;10.15;7.60;;;;;;;-1.19;100.00;61885.63;5005649;28;20210;-78
2022/12/20 00:17:40;;;;;;;11.77;6.57;;;;;;;-1.21;100.00;61876.06;5005209;28;20238;-78
2022/12/20 00:20:10;;;;;;;12.80;7.38;;;;;;;-1.28;100.00;61868.91;5006112;28;20235;-77
2022/12/20 00:22:38;;;;;;;13.75;6.65;;;;;;;-1.34;100.00;61864.75;5007304;28;20203;-78
2022/12/20 00:25:06;;;;;;;9.88;7.13;;;;;;;-1.48;100.00;61848.44;5009818;28;20195;-78
2022/12/20 00:27:33;;;;;;;12.07;7.90;;;;;;;-1.39;100.00;61862.13;5004370;28;20247;-80
2022/12/20 00:30:00;;;;;;;10.75;6.90;;;;;;;-1.65;100.00;61830.53;5016128;28;20270;-78
2022/12/20 00:32:27;;;;;;;11.32;7.88;;;;;;;-1.57;100.00;61841.22;4996183;28;20466;-79
2022/12/20 00:34:54;;;;;;;11.38;7.35;;;;;;;-1.57;100.00;61839.22;5007678;28;20207;-78
2022/12/20 00:37:23;;;;;;;8.68;6.95;;;;;;;-1.54;100.00;61844.31;5000684;28;20240;-80
2022/12/20 00:39:49;;;;;;;11.07;7.53;;;;;;;-1.60;100.00;61838.16;5004738;28;20246;-78
2022/12/20 00:42:16;;;;;;;10.73;6.97;;;;;;;-1.61;100.00;61842.66;5005282;28;20215;-78
2022/12/20 00:44:43;;;;;;;12.38;7.60;;;;;;;-1.68;100.00;61827.47;5007232;28;20287;-79
2022/12/20 00:47:10;;;;;;;13.23;8.18;;;;;;;-1.67;100.00;61826.50;5005871;28;20251;-78
2022/12/20 00:49:38;;;;;;;12.52;6.55;;;;;;;-1.88;100.00;61809.53;5005401;28;20199;-77
2022/12/20 00:52:05;;;;;;;9.27;6.88;;;;;;;-1.99;100.00;61798.78;5005704;28;20231;-78
2022/12/20 00:54:34;;;;;;;11.18;7.35;;;;;;;-2.00;100.00;61795.25;5004439;28;20215;-79
2022/12/20 00:57:01;;;;;;;15.95;7.53;;;;;;;-2.15;100.00;61782.41;5005611;28;20230;-78
2022/12/20 00:59:28;;;;;;;11.55;6.82;;;;;;;-2.07;100.00;61793.06;5006393;28;20200;-77
2022/12/20 01:01:55;;;;;;;12.75;7.50;;;;;;;-2.12;100.00;61782.97;5005805;28;20246;-78
2022/12/20 01:04:24;;;;;;;13.70;6.53;;;;;;;-2.11;100.00;61786.50;5006445;28;20205;-78
2022/12/20 01:06:51;;;;;;;14.82;7.35;;;;;;;-2.17;100.00;61780.38;5003896;28;20295;-78
2022/12/20 01:09:18;;;;;;;8.55;5.55;;;;;;;-2.21;100.00;61771.31;5001524;28;20204;-77
2022/12/20 01:11:47;;;;;;;8.85;6.00;;;;;;;-2.25;100.00;61769.69;5012215;28;20234;-79
2022/12/20 01:14:15;;;;;;;11.48;6.93;;;;;;;-2.30;100.00;61772.06;5008708;28;20196;-79
2022/12/20 01:16:44;;;;;;;11.57;7.03;;;;;;;-2.39;100.00;61755.38;5010156;28;20234;-78
2022/12/20 01:19:12;;;;;;;10.20;6.72;;;;;;;-2.43;100.00;61761.78;5013003;28;20202;-80
2022/12/20 01:21:43;;;;;;;9.20;6.95;;;;;;;-2.48;100.00;61743.69;5008265;28;20575;-78
2022/12/20 01:24:10;;;;;;;11.50;7.13;;;;;;;-2.55;100.00;61739.53;5009126;28;20290;-78
2022/12/20 01:26:37;;;;;;;12.68;7.30;;;;;;;-2.53;100.00;61746.56;5009006;28;20215;-78
2022/12/20 01:29:06;;;;;;;12.43;6.78;;;;;;;-2.53;100.00;61744.06;5019063;28;20226;-78
2022/12/20 01:31:33;;;;;;;11.40;6.40;;;;;;;-2.53;100.00;61743.56;5008205;28;20275;-79
2022/12/20 01:34:01;;;;;;;9.68;6.57;;;;;;;-2.57;100.00;61744.97;5006419;28;20273;-78
2022/12/20 01:36:30;;;;;;;10.38;6.15;;;;;;;-2.65;100.00;61731.81;5010947;28;20230;-77
2022/12/20 01:38:58;;;;;;;11.10;6.18;;;;;;;-2.66;100.00;61738.25;5007226;28;20206;-78
2022/12/20 01:41:25;;;;;;;8.13;6.03;;;;;;;-2.68;100.00;61720.75;5011558;28;20235;-79
2022/12/20 01:43:54;;;;;;;8.45;6.07;;;;;;;-2.57;100.00;61737.50;5011608;28;20200;-78
2022/12/20 01:46:24;;;;;;;13.95;7.45;;;;;;;-2.71;100.00;61722.69;5006924;28;20270;-77
2022/12/20 01:48:56;;;;;;;10.05;6.30;;;;;;;-2.72;100.00;61724.13;5004177;28;20211;-78
2022/12/20 01:51:24;;;;;;;10.38;6.50;;;;;;;-2.60;100.00;61733.91;5008939;28;20238;-77
2022/12/20 01:53:56;;;;;;;9.00;6.20;;;;;;;-2.62;100.00;61739.84;5008333;28;20484;-78
2022/12/20 01:56:24;;;;;;;10.23;6.30;;;;;;;-2.70;100.00;61726.19;5007195;28;20219;-79
2022/12/20 01:58:53;;;;;;;11.20;6.18;;;;;;;-2.70;100.00;61731.69;4996013;28;20215;-79
2022/12/20 02:01:23;;;;;;;9.45;6.72;;;;;;;-2.85;100.00;61713.88;5006978;28;20295;-77
2022/12/20 02:03:52;;;;;;;9.00;6.50;;;;;;;-2.70;100.00;61726.19;5007104;28;20262;-78
2022/12/20 02:06:21;;;;;;;10.18;7.00;;;;;;;-2.67;100.00;61731.75;5006758;28;20238;-78
2022/12/20 02:08:53;;;;;;;10.77;6.15;;;;;;;-2.81;100.00;61710.47;5010936;28;20217;-79
2022/12/20 02:11:36;;;;;;;11.43;6.30;;;;;;;-2.71;100.00;61725.16;5007812;28;20238;-78
2022/12/20 02:14:14;;;;;;;7.38;5.65;;;;;;;-2.75;100.00;61718.59;4998924;28;20274;-78
2022/12/20 02:16:49;;;;;;;9.70;5.60;;;;;;;-2.78;100.00;61718.50;5009404;28;20254;-77
2022/12/20 02:19:43;;;;;;;8.00;5.85;;;;;;;-2.83;100.00;61708.44;5009141;28;20210;-82
2022/12/20 02:22:23;;;;;;;12.07;6.32;;;;;;;-2.93;100.00;61702.69;5006730;28;20223;-78
2022/12/20 02:25:21;;;;;;;10.77;6.10;;;;;;;-2.85;100.00;61715.84;5009687;28;20211;-77
2022/12/20 02:28:00;;;;;;;8.35;5.32;;;;;;;-2.90;100.00;61706.25;4995027;28;20286;-78
2022/12/20 02:30:34;;;;;;;8.10;5.30;;;;;;;-2.95;100.00;61705.63;5008473;28;20233;-78
2022/12/20 02:33:04;;;;;;;10.15;5.68;;;;;;;-3.01;100.00;61695.03;5006746;28;20204;-79
2022/12/20 02:35:33;;;;;;;7.80;5.65;;;;;;;-3.09;100.00;61686.84;5004312;28;20226;-79
2022/12/20 02:38:03;;;;;;;10.07;6.20;;;;;;;-2.98;100.00;61700.06;5009449;28;20219;-77
2022/12/20 02:40:34;;;;;;;7.30;5.50;;;;;;;-2.91;100.00;61702.22;5006044;28;20230;-78
2022/12/20 02:45:14;;;;;;;8.80;6.00;;;;;;;-2.98;100.00;61697.56;5005091;28;20204;-79
2022/12/20 02:45:56;;;;;;;7.03;5.25;;;;;;;-3.10;100.00;61690.28;5007552;28;20263;-78
2022/12/20 02:48:26;;;;;;;10.50;5.70;;;;;;;-3.17;100.00;61675.66;5007931;28;20370;-78
2022/12/20 02:50:56;;;;;;;10.27;6.43;;;;;;;-3.22;100.00;61671.06;5010192;28;20219;-78
2022/12/20 02:53:24;;;;;;;7.93;6.43;;;;;;;-3.24;100.00;61671.00;5008965;28;20192;-77
2022/12/20 02:55:57;;;;;;;9.45;5.90;;;;;;;-3.25;100.00;61670.00;5007352;28;20254;-78
2022/12/20 02:58:30;;;;;;;10.98;6.35;;;;;;;-3.25;100.00;61673.00;5006742;28;20523;-78
2022/12/20 03:01:09;;;;;;;11.52;6.05;;;;;;;-3.34;100.00;61658.31;5006907;28;20246;-78
2022/12/20 03:03:36;;;;;;;10.40;6.22;;;;;;;-3.42;100.00;61650.16;5006558;28;20203;-79
2022/12/20 03:06:04;;;;;;;10.95;7.50;;;;;;;-3.47;100.00;61645.56;5008331;28;20575;-78
2022/12/20 03:08:31;;;;;;;14.88;6.88;;;;;;;-3.49;100.00;61647.97;5002775;28;20207;-76
2022/12/20 03:10:57;;;;;;;13.15;6.85;;;;;;;-3.44;100.00;61646.13;5005345;28;20282;-78
2022/12/20 03:13:26;;;;;;;12.15;6.55;;;;;;;-3.47;100.00;61647.53;5006051;28;20203;-78
2022/12/20 03:15:53;;;;;;;9.75;6.20;;;;;;;-3.46;100.00;61648.53;5006764;28;20219;-78
2022/12/20 03:18:21;;;;;;;13.95;7.22;;;;;;;-3.53;100.00;61644.91;5006485;28;20203;-77
2022/12/20 03:20:48;;;;;;;9.90;6.03;;;;;;;-3.55;100.00;61639.84;5006089;28;20241;-78
2022/12/20 03:23:15;;;;;;;8.52;6.38;;;;;;;-3.62;100.00;61630.22;5006273;28;20511;-78
2022/12/20 03:25:41;;;;;;;12.70;6.90;;;;;;;-3.72;100.00;61622.50;5003081;28;20219;-78
2022/12/20 03:28:09;;;;;;;9.20;6.72;;;;;;;-3.73;100.00;61624.47;5005818;28;20207;-76
2022/12/20 03:30:36;;;;;;;8.98;6.78;;;;;;;-3.82;100.00;61609.81;5005728;28;20215;-78
2022/12/20 03:33:03;;;;;;;10.40;6.95;;;;;;;-3.76;100.00;61620.91;5008765;28;20206;-78
2022/12/20 03:35:32;;;;;;;13.23;7.82;;;;;;;-3.77;100.00;61627.34;4996882;28;20431;-79
2022/12/20 03:37:59;;;;;;;12.00;7.07;;;;;;;-3.74;100.00;61620.47;5006961;28;20501;-79
2022/12/20 03:40:26;;;;;;;12.85;6.63;;;;;;;-3.76;100.00;61613.44;5006252;28;20448;-79
2022/12/20 03:42:54;;;;;;;10.30;7.10;;;;;;;-3.71;100.00;61621.53;5004184;28;20243;-78
2022/12/20 03:45:21;;;;;;;13.85;7.38;;;;;;;-3.76;100.00;61623.91;5004570;28;20211;-78
2022/12/20 03:47:48;;;;;;;9.63;6.93;;;;;;;-3.74;100.00;61625.44;5006349;28;20202;-80
2022/12/20 03:50:15;;;;;;;14.65;7.03;;;;;;;-3.79;100.00;61618.38;5010708;28;20203;-79
2022/12/20 03:52:43;;;;;;;8.10;6.10;;;;;;;-3.81;100.00;61616.31;5004528;28;20344;-79
2022/12/20 03:55:11;;;;;;;9.88;7.00;;;;;;;-3.74;100.00;61628.44;5005892;28;20195;-78
2022/12/20 03:57:38;;;;;;;13.05;6.82;;;;;;;-3.71;100.00;61621.06;5006361;28;20401;-79
2022/12/20 04:00:06;;;;;;;14.55;7.53;;;;;;;-3.77;100.00;61614.91;4989545;28;20195;-78
2022/12/20 04:02:33;;;;;;;10.02;6.93;;;;;;;-3.76;100.00;61623.91;4996037;28;20253;-78
2022/12/20 04:05:01;;;;;;;14.07;7.68;;;;;;;-3.77;100.00;61619.88;5006353;28;20480;-79
2022/12/20 04:07:28;;;;;;;11.10;7.50;;;;;;;-3.91;100.00;61610.56;5006053;28;20220;-77
2022/12/20 04:09:56;;;;;;;10.35;6.65;;;;;;;-3.79;100.00;61618.38;5005335;28;20496;-78
2022/12/20 04:12:23;;;;;;;14.80;7.25;;;;;;;-3.92;100.00;61600.09;4994897;28;20265;-77
2022/12/20 04:14:50;;;;;;;11.52;7.45;;;;;;;-3.93;100.00;61603.56;5005953;28;20438;-78
2022/12/20 04:17:17;;;;;;;13.20;7.30;;;;;;;-3.99;100.00;61597.44;5006787;28;20226;-79
2022/12/20 04:19:44;;;;;;;8.70;6.35;;;;;;;-4.08;100.00;61593.72;5014650;28;20342;-77
2022/12/20 04:22:11;;;;;;;12.82;7.13;;;;;;;-4.00;100.00;61588.94;5005075;28;20298;-79
2022/12/20 04:24:38;;;;;;;10.88;6.50;;;;;;;-3.93;100.00;61603.56;5005925;28;20199;-77
2022/12/20 04:27:06;;;;;;;10.75;6.40;;;;;;;-3.98;100.00;61595.97;5004708;28;20238;-78
2022/12/20 04:29:34;;;;;;;13.77;6.53;;;;;;;-4.26;100.00;61565.41;5007178;28;20235;-78
2022/12/20 04:32:01;;;;;;;9.60;7.03;;;;;;;-4.25;100.00;61576.38;5002154;28;20215;-78
2022/12/20 04:34:28;;;;;;;16.77;7.53;;;;;;;-4.29;100.00;61557.38;5005848;28;20222;-78
2022/12/20 04:36:55;;;;;;;11.52;6.30;;;;;;;-4.15;100.00;61583.59;5002874;28;20577;-77
2022/12/20 04:39:22;;;;;;;9.07;6.22;;;;;;;-4.16;100.00;61582.56;5004535;28;20496;-77
2022/12/20 04:41:49;;;;;;;10.48;6.13;;;;;;;-4.19;100.00;61572.56;5003750;28;20263;-78
2022/12/20 04:44:17;;;;;;;11.88;7.15;;;;;;;-4.11;100.00;61582.69;5010155;28;20196;-78
2022/12/20 04:46:44;;;;;;;11.13;6.65;;;;;;;-4.09;100.00;61584.75;5006479;28;20251;-77
2022/12/20 04:49:11;;;;;;;13.32;6.13;;;;;;;-4.23;100.00;61567.97;5011885;28;20196;-78
2022/12/20 04:51:38;;;;;;;11.52;6.70;;;;;;;-4.30;100.00;61568.78;5009619;28;20286;-78
2022/12/20 04:54:05;;;;;;;14.07;7.10;;;;;;;-4.24;100.00;61572.44;5007927;28;20199;-78
2022/12/20 04:56:32;;;;;;;13.63;7.93;;;;;;;-4.19;100.00;61582.50;5008693;28;20298;-77
2022/12/20 04:59:01;;;;;;;16.77;7.47;;;;;;;-4.12;100.00;61582.19;5006093;28;20202;-78
2022/12/20 05:01:29;;;;;;;13.23;7.03;;;;;;;-4.32;100.00;61564.28;5014934;28;20235;-76
2022/12/20 05:03:56;;;;;;;12.18;7.28;;;;;;;-4.27;100.00;61568.84;5006968;28;20203;-77
2022/12/20 05:06:23;;;;;;;11.80;7.80;;;;;;;-4.26;100.00;61572.38;5009612;28;20508;-77
2022/12/20 05:08:50;;;;;;;14.00;7.70;;;;;;;-4.26;100.00;61570.38;5005523;28;20246;-77
2022/12/20 05:11:17;;;;;;;13.55;7.38;;;;;;;-4.23;100.00;61565.50;5005946;28;20237;-78
2022/12/20 05:13:44;;;;;;;12.10;7.03;;;;;;;-4.21;100.00;61579.97;5015400;28;20227;-77
2022/12/20 05:16:11;;;;;;;14.77;7.78;;;;;;;-4.30;100.00;61568.28;5013254;28;20387;-76
2022/12/20 05:18:39;;;;;;;14.30;8.35;;;;;;;-4.23;100.00;61563.53;5008477;28;20275;-77
2022/12/20 05:26:38;;;;;;;9.05;6.30;;;;;;;-4.38;100.00;61560.13;4995205;28;20262;-77
2022/12/20 05:29:05;;;;;;;11.15;6.20;;;;;;;-4.27;100.00;61568.84;5011395;28;20199;-76
2022/12/20 05:31:32;;;;;;;14.10;6.43;;;;;;;-4.25;100.00;61571.41;5009901;28;20258;-77
2022/12/20 05:34:01;;;;;;;14.27;7.07;;;;;;;-4.20;100.00;61568.53;5010942;28;20266;-77
2022/12/20 05:36:28;;;;;;;12.05;6.43;;;;;;;-4.17;100.00;61572.13;5010818;28;20258;-78
2022/12/20 05:38:56;;;;;;;10.95;5.75;;;;;;;-4.13;100.00;61581.19;5005772;28;20555;-78
2022/12/20 05:41:23;;;;;;;12.63;6.55;;;;;;;-4.22;100.00;61572.00;5010378;28;20230;-77
2022/12/20 05:43:50;;;;;;;10.20;5.85;;;;;;;-4.31;100.00;61557.31;5009325;28;20196;-76
2022/12/20 05:46:17;;;;;;;12.45;5.70;;;;;;;-4.17;100.00;61572.13;5007774;28;20230;-76
2022/12/20 05:48:44;;;;;;;10.25;5.75;;;;;;;-4.13;100.00;61586.16;5016872;28;20209;-77
2022/12/20 05:51:13;;;;;;;7.25;4.75;;;;;;;-4.04;100.00;61589.84;5027052;28;20223;-77
2022/12/20 05:53:39;;;;;;;13.43;6.03;;;;;;;-4.11;100.00;61580.22;5009213;28;20263;-77
2022/12/20 05:56:07;;;;;;;8.50;5.10;;;;;;;-3.96;100.00;61598.00;5010068;28;20223;-77
2022/12/20 05:58:34;;;;;;;10.68;6.03;;;;;;;-4.00;100.00;61594.44;5006412;28;20211;-75
2022/12/20 06:01:01;;;;;;;6.60;5.00;;;;;;;-3.92;100.00;61609.56;5006428;28;20223;-76
2022/12/20 06:03:29;;;;;;;7.35;4.38;;;;;;;-3.97;100.00;61594.50;5004855;28;20191;-76
2022/12/20 06:05:57;;;;;;;8.35;6.22;;;;;;;-3.90;100.00;61609.59;5006330;28;20223;-75
2022/12/20 06:08:26;;;;;;;9.73;6.13;;;;;;;-3.89;100.00;61603.19;5009288;28;20492;-76
2022/12/20 06:10:53;;;;;;;11.30;6.55;;;;;;;-3.86;100.00;61608.22;5007170;28;20258;-78
2022/12/20 06:13:20;;;;;;;14.57;7.55;;;;;;;-3.84;100.00;61607.78;5006806;28;20195;-77
2022/12/20 06:15:48;;;;;;;13.38;7.68;;;;;;;-3.78;100.00;61613.91;5006707;28;20382;-78
2022/12/20 06:18:15;;;;;;;14.80;7.82;;;;;;;-3.81;100.00;61611.34;5006832;28;20202;-78
2022/12/20 06:20:42;;;;;;;13.32;7.68;;;;;;;-3.69;100.00;61628.06;5010539;28;20222;-78
2022/12/20 06:23:09;;;;;;;16.65;9.27;;;;;;;-3.74;100.00;61622.94;5008230;28;20294;-77
2022/12/20 06:25:39;;;;;;;13.48;8.88;;;;;;;-3.64;100.00;61625.69;5005649;28;20348;-79
2022/12/20 06:28:06;;;;;;;17.15;9.75;;;;;;;-3.51;100.00;61636.50;5006406;28;20207;-77
2022/12/20 06:30:34;;;;;;;19.80;9.43;;;;;;;-3.45;100.00;61650.06;5006882;28;20409;-76
2022/12/20 06:33:01;;;;;;;14.23;9.55;;;;;;;-3.50;100.00;61642.47;5005804;28;20225;-77
2022/12/20 06:35:28;;;;;;;20.02;10.65;;;;;;;-3.36;100.00;61656.78;5007171;28;20246;-76
2022/12/20 06:37:55;;;;;;;18.20;10.02;;;;;;;-3.33;100.00;61661.81;5007808;28;20473;-78
2022/12/20 06:40:23;;;;;;;23.27;12.60;;;;;;;-3.33;100.00;61659.34;5006345;28;20399;-78
2022/12/20 06:42:51;;;;;;;22.95;10.77;;;;;;;-3.27;100.00;61670.94;5005955;28;20211;-77
2022/12/20 06:45:18;;;;;;;24.17;13.20;;;;;;;-3.19;100.00;61676.63;4997271;28;20206;-78
2022/12/20 06:47:45;;;;;;;25.88;12.82;;;;;;;-3.17;100.00;61680.66;5006653;28;20574;-77
2022/12/20 06:50:12;;;;;;;25.77;11.65;;;;;;;-3.13;100.00;61682.25;5010682;28;20263;-77
2022/12/20 06:52:40;;;;;;;23.63;12.00;;;;;;;-3.12;100.00;61683.78;5004177;28;20430;-77
2022/12/20 06:55:07;;;;;;;16.02;9.60;;;;;;;-3.03;100.00;61695.47;5004011;28;20203;-76
2022/12/20 06:57:34;;;;;;;20.55;9.75;;;;;;;-2.97;100.00;61701.09;5004187;28;20407;-78
2022/12/20 07:00:04;;;;;;;13.48;8.90;;;;;;;-2.88;100.00;61707.81;5005624;28;20234;-78
2022/12/20 07:02:31;;;;;;;17.65;8.63;;;;;;;-2.86;100.00;61707.34;5001969;28;20242;-77
2022/12/20 07:04:58;;;;;;;16.20;9.27;;;;;;;-2.78;100.00;61715.53;5010354;28;20478;-77
2022/12/20 07:07:25;;;;;;;14.68;7.88;;;;;;;-2.73;100.00;61721.16;5005764;28;20215;-77
2022/12/20 07:09:52;;;;;;;13.45;7.80;;;;;;;-2.70;100.00;61721.72;5004772;28;20210;-78
2022/12/20 07:12:19;;;;;;;17.33;7.88;;;;;;;-2.50;100.00;61752.13;5001407;28;20247;-77
2022/12/20 07:14:46;;;;;;;13.43;7.22;;;;;;;-2.26;100.00;61771.16;5004973;28;20388;-76
2022/12/20 07:17:15;;;;;;;13.52;8.30;;;;;;;-1.87;98.71;61813.03;5007540;28;20270;-76
2022/12/20 07:19:42;;;;;;;11.57;7.85;;;;;;;-1.66;95.48;61827.53;5003857;28;20206;-77
2022/12/20 07:22:09;;;;;;;12.43;6.80;;;;;;;-1.52;93.50;61841.84;5003910;28;20231;-77
2022/12/20 07:24:36;;;;;;;10.63;6.05;;;;;;;-1.42;91.88;61854.59;5004854;28;20199;-77
2022/12/20 07:27:03;;;;;;;9.85;6.60;;;;;;;-1.42;90.27;61854.59;5006069;28;20227;-79
2022/12/20 07:29:30;;;;;;;8.82;6.90;;;;;;;-1.35;89.46;61863.75;5004233;28;20238;-78
2022/12/20 07:31:57;;;;;;;13.10;5.55;;;;;;;-1.47;88.52;61856.94;5006846;28;20279;-78
2022/12/20 07:34:26;;;;;;;9.02;5.78;;;;;;;-1.31;88.89;61872.81;5007985;28;20435;-79
2022/12/20 07:36:53;;;;;;;10.57;6.38;;;;;;;-1.29;89.35;61867.91;5000352;28;20224;-78
2022/12/20 07:39:20;;;;;;;10.55;6.82;;;;;;;-1.27;89.81;61874.94;4987171;28;20449;-78
2022/12/20 07:41:48;;;;;;;8.77;6.03;;;;;;;-1.27;89.18;61874.41;4997230;28;20281;-78
2022/12/20 07:44:15;;;;;;;11.38;6.75;;;;;;;-1.21;89.90;61878.06;5005833;28;20222;-78
2022/12/20 07:46:42;;;;;;;9.27;5.55;;;;;;;-1.21;89.65;61871.06;4997775;28;20428;-77
2022/12/20 07:49:09;;;;;;;7.35;5.82;;;;;;;-1.15;89.24;61879.22;4986605;28;20211;-78
2022/12/20 07:51:42;;;;;;;7.03;5.25;;;;;;;-1.02;88.45;61899.50;5005239;28;20220;-78
2022/12/20 07:54:14;;;;;;;9.55;6.20;;;;;;;-1.02;88.31;61905.00;5008151;28;20188;-77
2022/12/20 07:56:46;;;;;;;8.75;5.85;;;;;;;-0.90;87.99;61906.78;4986507;28;20220;-78
2022/12/20 07:59:16;;;;;;;9.20;5.85;;;;;;;-0.83;87.74;61921.47;4986748;28;20513;-78
2022/12/20 08:01:45;;;;;;;10.48;6.30;;;;;;;-0.81;87.09;61926.00;5006214;28;20238;-78
2022/12/20 08:04:18;;;;;;;10.27;6.43;;;;;;;-0.58;86.78;61942.06;5005428;28;20242;-77
2022/12/20 08:06:48;;;;;;;7.70;5.35;;;;;;;-0.62;85.90;61938.47;5006198;28;20221;-77
2022/12/20 08:09:16;;;;;;;11.48;6.25;;;;;;;-0.63;85.91;61936.94;5005286;28;20214;-78
2022/12/20 08:11:47;;;;;;;13.43;6.72;;;;;;;-0.47;86.42;61953.84;5005669;28;20215;-78
2022/12/20 08:14:16;;;;;;;8.75;6.65;;;;;;;-0.42;86.03;61958.97;5004323;28;20246;-77
2022/12/20 08:16:43;;;;;;;10.20;6.32;;;;;;;-0.30;86.16;61973.25;4998853;28;20420;-77
2022/12/20 08:19:10;;;;;;;10.00;6.45;;;;;;;-0.18;85.59;61980.53;4989024;28;20192;-76
2022/12/20 08:21:38;;;;;;;9.23;6.10;;;;;;;-0.12;84.58;61989.16;5009389;28;20265;-77
2022/12/20 08:24:07;;;;;;;8.35;5.53;;;;;;;-0.04;84.24;61999.88;4990620;28;20211;-79
2022/12/20 08:26:37;;;;;;;10.65;6.88;;;;;;;-0.10;82.43;61996.75;4995049;28;20258;-77
2022/12/20 08:29:04;;;;;;;10.38;6.00;;;;;;;0.03;82.01;62002.56;5000683;28;20226;-77
2022/12/20 08:31:31;;;;;;;9.73;6.65;;;;;;;-0.05;81.61;61994.34;5003248;28;20215;-76
2022/12/20 08:33:58;;;;;;;8.18;6.05;;;;;;;0.07;81.53;62010.66;5007625;28;20204;-78
2022/12/20 08:36:25;;;;;;;8.32;5.68;;;;;;;-0.02;80.67;61999.94;4998488;28;20242;-78
2022/12/20 08:38:52;;;;;;;10.98;6.05;;;;;;;0.03;80.70;62004.56;5005958;28;20195;-78
2022/12/20 08:41:21;;;;;;;10.10;6.93;;;;;;;-0.12;81.06;61989.69;5002100;28;20211;-78
2022/12/20 08:43:48;;;;;;;9.52;6.20;;;;;;;0.15;81.29;62014.34;5007627;28;20250;-78
2022/12/20 08:46:15;;;;;;;7.53;6.13;;;;;;;0.22;80.17;62021.53;4994109;28;20250;-78
2022/12/20 08:48:42;;;;;;;11.13;6.03;;;;;;;0.23;78.58;62024.53;5006518;28;20204;-77
2022/12/20 08:51:11;;;;;;;8.77;5.57;;;;;;;0.47;78.81;62044.13;5009931;28;20218;-78
2022/12/20 08:53:39;;;;;;;9.75;6.38;;;;;;;0.54;77.71;62056.31;4999177;28;20200;-77
2022/12/20 08:56:08;;;;;;;9.98;6.97;;;;;;;0.57;78.03;62056.91;4989986;28;20254;-77
2022/12/20 08:58:38;;;;;;;8.68;6.43;;;;;;;0.57;77.12;62056.91;5002533;28;20226;-77
2022/12/20 09:01:08;;;;;;;7.28;5.90;;;;;;;0.72;76.59;62075.28;4992801;28;20220;-78
2022/12/20 09:03:36;;;;;;;8.32;5.70;;;;;;;0.67;75.58;62070.16;4989467;28;20295;-78
2022/12/20 09:06:06;;;;;;;9.27;6.10;;;;;;;0.67;74.62;62067.66;4992029;28;20227;-77
2022/12/20 09:08:34;;;;;;;9.68;6.05;;;;;;;0.79;73.55;62087.47;4999591;28;20276;-78
2022/12/20 09:11:04;;;;;;;9.00;6.20;;;;;;;0.78;73.78;62081.44;4990484;28;20220;-78
2022/12/20 09:13:31;;;;;;;11.38;7.13;;;;;;;0.77;75.36;62077.91;4992403;28;20258;-79
2022/12/20 09:16:03;;;;;;;17.25;7.95;;;;;;;0.86;76.10;62091.63;5005136;28;20223;-78
2022/12/20 09:18:31;;;;;;;13.05;7.43;;;;;;;0.78;73.76;62083.41;5009971;28;20247;-77
2022/12/20 09:21:00;;;;;;;15.05;7.20;;;;;;;0.73;75.87;62073.28;5008356;28;20411;-78
2022/12/20 09:23:27;;;;;;;11.48;7.45;;;;;;;0.73;75.08;62076.31;5007076;28;20231;-78
2022/12/20 09:25:55;;;;;;;12.30;6.72;;;;;;;0.83;73.98;62081.56;5009813;28;20219;-78
2022/12/20 09:28:23;;;;;;;9.95;6.68;;;;;;;0.80;74.81;62082.97;5011497;28;20207;-78
2022/12/20 09:30:50;;;;;;;14.77;8.07;;;;;;;0.87;74.51;62092.66;5008921;28;20219;-78
2022/12/20 09:33:18;;;;;;;12.25;7.38;;;;;;;0.79;74.75;62079.44;5007624;28;20222;-78
2022/12/20 09:35:46;;;;;;;10.20;7.53;;;;;;;0.75;75.43;62075.34;5008923;28;20215;-78
2022/12/20 09:38:14;;;;;;;15.50;7.45;;;;;;;0.84;75.49;62084.56;5009939;28;20203;-80
2022/12/20 09:40:45;;;;;;;14.68;7.45;;;;;;;0.78;75.20;62080.91;5010768;28;20249;-78
2022/12/20 09:43:13;;;;;;;12.50;8.00;;;;;;;1.01;76.60;62107.03;4990455;28;20460;-79
2022/12/20 09:45:41;;;;;;;10.82;6.88;;;;;;;1.18;75.09;62121.94;5003879;28;20227;-78
2022/12/20 09:48:16;;;;;;;9.27;6.70;;;;;;;1.25;72.91;62134.16;5009389;28;20206;-77
2022/12/20 09:50:57;;;;;;;11.38;7.20;;;;;;;1.09;71.74;62117.72;5008240;28;20223;-79
2022/12/20 09:53:33;;;;;;;11.30;7.32;;;;;;;0.69;73.47;62071.69;5010587;28;20187;-79
2022/12/20 09:56:05;;;;;;;12.32;7.40;;;;;;;0.87;74.54;62090.66;5013642;28;20215;-79
2022/12/20 09:58:47;;;;;;;12.93;7.18;;;;;;;1.15;73.75;62121.38;5009411;28;20507;-80
2022/12/20 10:01:18;;;;;;;9.30;6.43;;;;;;;1.25;71.54;62134.16;5005869;28;20226;-77
2022/12/20 10:03:45;;;;;;;12.50;6.82;;;;;;;1.22;70.11;62128.06;5008018;28;20226;-78
2022/12/20 10:06:25;;;;;;;12.13;7.13;;;;;;;1.24;71.88;62125.09;5008141;28;20223;-79
2022/12/20 10:08:57;;;;;;;12.40;6.72;;;;;;;1.50;70.55;62147.25;5006664;28;20187;-78
2022/12/20 10:11:49;;;;;;;11.70;7.05;;;;;;;1.80;68.62;62190.09;5004834;28;20242;-79
2022/12/20 10:14:33;;;;;;;13.10;7.55;;;;;;;1.61;67.24;62166.06;5007273;28;20200;-79
2022/12/20 10:17:04;;;;;;;9.43;6.40;;;;;;;1.62;66.71;62167.13;5009037;28;20247;-77
2022/12/20 10:19:51;;;;;;;15.23;7.05;;;;;;;1.72;67.24;62179.38;5010009;28;20199;-78
2022/12/20 10:22:26;;;;;;;11.68;6.57;;;;;;;1.87;66.16;62192.25;5005083;28;20243;-80
2022/12/20 10:24:58;;;;;;;10.85;6.80;;;;;;;1.74;65.98;62176.41;5006965;28;20241;-79
2022/12/20 10:27:26;;;;;;;10.40;6.40;;;;;;;2.24;67.16;62230.25;5004479;28;20290;-80
2022/12/20 10:29:53;;;;;;;12.02;7.28;;;;;;;2.41;62.62;62247.72;5008100;28;20203;-79
2022/12/20 10:32:22;;;;;;;8.45;5.90;;;;;;;2.43;59.77;62251.75;5008238;28;20501;-81
2022/12/20 10:34:55;;;;;;;10.50;6.65;;;;;;;2.51;63.21;62257.47;5009127;28;20244;-80
2022/12/20 10:37:24;;;;;;;11.65;6.80;;;;;;;2.40;61.21;62244.16;5008938;28;20278;-78
2022/12/20 10:39:52;;;;;;;10.30;6.80;;;;;;;2.57;62.95;62266.16;5005313;28;20385;-80
2022/12/20 10:42:28;;;;;;;10.70;6.85;;;;;;;2.38;61.49;62237.09;5008433;28;20579;-81
2022/12/20 10:44:57;;;;;;;10.52;7.05;;;;;;;2.38;60.13;62242.63;5007716;28;20191;-79
2022/12/20 10:47:36;;;;;;;10.68;6.65;;;;;;;2.37;59.63;62241.09;5009087;28;20404;-78
2022/12/20 10:50:15;;;;;;;7.85;6.63;;;;;;;2.48;59.24;62259.41;5009197;28;20210;-80
2022/12/20 10:52:45;;;;;;;9.27;7.03;;;;;;;2.41;58.74;62245.19;5010785;28;20199;-80
2022/12/20 10:55:35;;;;;;;11.00;6.50;;;;;;;2.06;59.78;62211.75;5009038;28;20199;-81
2022/12/20 10:58:05;;;;;;;13.48;6.38;;;;;;;2.09;59.17;62217.34;5009265;28;20199;-79
2022/12/20 11:00:33;;;;;;;8.43;6.35;;;;;;;2.28;58.86;62232.34;5009117;28;20557;-81
2022/12/20 11:03:11;;;;;;;10.05;6.68;;;;;;;2.48;57.28;62254.38;5006536;28;20262;-79
2022/12/20 11:05:39;;;;;;;8.48;5.82;;;;;;;2.53;57.50;62260.03;4993723;28;20231;-80
2022/12/20 11:08:15;;;;;;;6.82;5.72;;;;;;;2.65;55.96;62269.84;4996307;28;20199;-79
2022/12/20 11:10:43;;;;;;;8.52;6.13;;;;;;;2.59;56.11;62265.69;4994192;28;20256;-79
2022/12/20 11:13:22;;;;;;;11.52;6.32;;;;;;;2.69;54.96;62278.47;4997158;28;20227;-79
2022/12/20 11:15:51;;;;;;;7.63;6.20;;;;;;;2.41;54.76;62247.19;5007424;28;20218;-78
2022/12/20 11:18:26;;;;;;;8.48;5.68;;;;;;;2.48;55.05;62254.38;5015234;28;20195;-79
2022/12/20 11:21:03;;;;;;;7.40;5.53;;;;;;;2.57;55.03;62261.63;5014419;28;20226;-79
2022/12/20 11:23:38;;;;;;;10.63;6.28;;;;;;;2.65;54.51;62272.38;5013665;28;20222;-79
2022/12/20 11:26:25;;;;;;;7.03;5.57;;;;;;;2.93;54.31;62300.63;5014469;28;20215;-79
2022/12/20 11:29:07;;;;;;;8.13;6.10;;;;;;;3.11;54.16;62322.16;5013202;28;20206;-78
2022/12/20 11:31:47;;;;;;;9.30;6.30;;;;;;;3.23;53.25;62328.94;5013158;28;20239;-78
2022/12/20 11:34:37;;;;;;;6.80;5.18;;;;;;;3.25;53.34;62338.53;5010187;28;20202;-79
2022/12/20 11:37:20;;;;;;;9.10;5.75;;;;;;;3.03;52.86;62308.38;5010035;28;20257;-79
2022/12/20 11:40:04;;;;;;;7.75;5.47;;;;;;;3.23;53.04;62329.44;5009032;28;20199;-80